Latest Weather Observations for Double Island Point

IDQ60801

Issued at 6:32 pm EST Sunday 28 August 2016 (issued every 30 minutes, with the page automatically refreshed every 10 minutes)

About weather observations | Map of weather stations | Latest weather observations for QLD | Other Formats
Station Details ID: 040068 Name: DOUBLE ISLAND POINT LIGHTHOUSE Lat: -25.93 Lon: 153.19 Height: 95.64 m
Data from the previous 72 hours. | See also: Recent months at Double Island Point
Date/Time
EST
Temp
°C
App
Temp
°C
Dew
Point
°C
Rel
Hum
%
Delta-T
°C
Wind Press
QNH
hPa
Press
MSL
hPa
Rain since
9am
mm
Dir  Spd
km/h
Gust
km/h
Spd
kts
Gust
kts
28/06:30pm - - - - - ESE 24 28 13 15 1022.1 1021.9 0.0
28/06:00pm - - - - - ESE 22 26 12 14 1021.9 1021.7 0.0
28/05:30pm - - - - - ESE 20 24 11 13 1021.6 1021.4 0.0
28/05:00pm - - - - - ESE 19 24 10 13 1021.3 1021.1 0.0
28/04:30pm - - - - - SE 20 24 11 13 1021.2 1021.0 0.0
28/04:00pm - - - - - SSE 20 24 11 13 1021.3 1021.1 0.0
28/03:30pm - - - - - SSE 20 24 11 13 1021.3 1021.1 0.0
28/03:00pm - - - - - SSE 22 30 12 16 1021.3 1021.1 0.0
28/02:30pm - - - - - SSE 24 30 13 16 1021.4 1021.2 0.0
28/02:00pm - - - - - SSE 24 33 13 18 1021.4 1021.2 0.0
28/01:30pm - - - - - SSE 26 32 14 17 1021.6 1021.4 0.0
28/01:00pm - - - - - S 26 32 14 17 1022.1 1021.9 0.0
28/12:30pm - - - - - S 30 37 16 20 1022.3 1022.1 0.0
28/12:00pm - - - - - S 32 37 17 20 1022.6 1022.5 0.0
28/11:30am - - - - - S 32 41 17 22 1023.0 1022.9 0.0
28/11:00am - - - - - S 32 37 17 20 1023.4 1023.3 0.0
28/10:30am - - - - - S 30 35 16 19 1023.8 1023.7 0.0
28/10:00am - - - - - S 30 37 16 20 1023.8 1023.7 0.0
28/09:30am - - - - - S 28 37 15 20 1023.8 1023.7 0.0
28/09:00am - - - - - S 28 37 15 20 1023.6 1023.5 0.0
28/08:30am - - - - - SSE 28 35 15 19 1023.4 1023.3 0.0
28/08:00am - - - - - SSE 28 37 15 20 1022.9 1022.8 0.0
28/07:30am - - - - - SSE 24 32 13 17 1022.7 1022.6 0.0
28/07:00am - - - - - S 20 26 11 14 1022.8 1022.7 0.0
28/06:30am - - - - - SSW 22 28 12 15 1022.4 1022.2 0.0
28/06:00am - - - - - SSW 22 28 12 15 1022.1 1021.9 0.0
28/05:30am - - - - - SSW 24 28 13 15 1021.8 1021.6 0.0
28/05:00am - - - - - SSW 24 28 13 15 1021.4 1021.2 0.0
28/04:30am - - - - - S 22 26 12 14 1021.2 1021.0 0.0
28/04:00am - - - - - S 26 28 14 15 1020.8 1020.6 0.0
28/03:30am - - - - - SSW 26 30 14 16 1020.7 1020.5 0.0
28/03:00am - - - - - S 28 35 15 19 1020.5 1020.3 0.0
28/02:30am - - - - - SSW 26 33 14 18 1020.7 1020.5 0.0
28/02:00am - - - - - SSW 26 32 14 17 1020.9 1020.7 0.0
28/01:30am - - - - - SSW 28 32 15 17 1021.1 1020.9 0.0
28/01:00am - - - - - SSW 30 35 16 19 1021.0 1020.8 0.0
28/12:30am - - - - - SW 28 35 15 19 1021.1 1020.9 0.0
28/12:00am - - - - - SW 28 32 15 17 1021.3 1021.1 0.0
 
Date/Time
EST
Temp
°C
App
Temp
°C
Dew
Point
°C
Rel
Hum
%
Delta-T
°C
Wind Press
QNH
hPa
Press
MSL
hPa
Rain since
9am
mm
Dir  Spd
km/h
Gust
km/h
Spd
kts
Gust
kts
27/11:30pm - - - - - WSW 26 30 14 16 1021.5 1021.3 0.0
27/11:00pm - - - - - WSW 22 28 12 15 1021.3 1021.1 0.0
27/10:30pm - - - - - WSW 19 22 10 12 1021.3 1021.1 0.0
27/10:00pm - - - - - WSW 17 19 9 10 1021.3 1021.1 0.0
27/09:30pm - - - - - SSW 19 20 10 11 1021.3 1021.1 0.0
27/09:00pm - - - - - SW 15 19 8 10 1021.1 1020.9 0.0
27/08:30pm - - - - - SSW 13 15 7 8 1021.1 1020.9 0.0
27/08:00pm - - - - - S 17 19 9 10 1020.9 1020.7 0.0
27/07:30pm - - - - - S 13 17 7 9 1020.7 1020.5 0.0
27/07:00pm - - - - - SE 15 20 8 11 1020.2 1020.0 0.0
27/06:30pm - - - - - SE 17 20 9 11 1019.9 1019.7 0.0
27/06:00pm - - - - - SE 17 20 9 11 1019.4 1019.2 0.0
27/05:30pm - - - - - SE 13 17 7 9 1019.1 1018.9 0.0
27/05:00pm - - - - - SE 13 19 7 10 1018.7 1018.5 0.0
27/04:30pm - - - - - ESE 13 17 7 9 1018.4 1018.2 0.0
27/04:00pm - - - - - ESE 13 19 7 10 1018.2 1018.0 0.0
27/03:30pm - - - - - SE 15 19 8 10 1017.9 1017.7 0.0
27/03:00pm - - - - - SE 17 20 9 11 1018.0 1017.8 0.0
27/02:30pm - - - - - SE 19 24 10 13 1018.0 1017.8 0.0
27/02:00pm - - - - - SE 19 22 10 12 1018.0 1017.8 0.0
27/01:30pm - - - - - SSE 24 32 13 17 1018.2 1018.0 0.0
27/01:00pm - - - - - SSE 24 32 13 17 1018.7 1018.5 0.0
27/12:30pm - - - - - S 26 33 14 18 1019.0 1018.8 0.0
27/12:00pm - - - - - S 26 33 14 18 1019.3 1019.1 0.0
27/11:30am - - - - - S 24 33 13 18 1019.7 1019.5 0.0
27/11:00am - - - - - S 28 39 15 21 1020.0 1019.8 0.0
27/10:30am - - - - - S 28 39 15 21 1020.0 1019.8 0.0
27/10:00am - - - - - S 24 32 13 17 1020.1 1019.9 0.0
27/09:30am - - - - - S 22 30 12 16 1020.0 1019.8 0.0
27/09:00am - - - - - SW 13 22 7 12 1020.1 1019.9 0.0
27/08:30am - - - - - SSW 15 20 8 11 1020.1 1019.9 0.0
27/08:00am - - - - - SSW 20 28 11 15 1019.6 1019.4 0.0
27/07:30am - - - - - SSW 26 30 14 16 1019.3 1019.1 0.0
27/07:00am - - - - - SSW 24 30 13 16 1019.0 1018.8 0.0
27/06:30am - - - - - SSW 28 32 15 17 1018.7 1018.5 0.0
27/06:00am - - - - - SSW 30 35 16 19 1018.7 1018.5 0.0
27/05:30am - - - - - SSW 30 37 16 20 1018.3 1018.1 0.0
27/05:00am - - - - - SW 33 43 18 23 1018.0 1017.8 0.0
27/04:30am - - - - - SW 30 39 16 21 1017.8 1017.6 0.0
27/04:00am - - - - - WSW 33 41 18 22 1017.5 1017.3 0.0
27/03:30am - - - - - WSW 33 39 18 21 1016.9 1016.7 0.0
27/03:00am - - - - - WSW 33 44 18 24 1017.3 1017.1 0.0
27/02:30am - - - - - W 35 43 19 23 1017.3 1017.1 0.0
27/02:00am - - - - - WSW 32 44 17 24 1017.4 1017.2 0.0
27/01:30am - - - - - SW 35 48 19 26 1017.4 1017.2 0.0
27/01:00am - - - - - WSW 35 44 19 24 1017.6 1017.4 0.0
27/12:30am - - - - - SW 35 54 19 29 1017.7 1017.5 0.0
27/12:26am - - - - - SW 35 54 19 29 1017.8 1017.6 0.0
27/12:00am - - - - - SW 33 43 18 23 1017.9 1017.7 0.0
 
Date/Time
EST
Temp
°C
App
Temp
°C
Dew
Point
°C
Rel
Hum
%
Delta-T
°C
Wind Press
QNH
hPa
Press
MSL
hPa
Rain since
9am
mm
Dir  Spd
km/h
Gust
km/h
Spd
kts
Gust
kts
26/11:30pm - - - - - SW 33 43 18 23 1017.8 1017.6 0.0
26/11:00pm - - - - - SW 33 44 18 24 1017.8 1017.6 0.0
26/10:30pm - - - - - SW 32 41 17 22 1017.8 1017.6 0.0
26/10:00pm - - - - - SW 35 44 19 24 1017.6 1017.4 0.0
26/09:30pm - - - - - SW 39 52 21 28 1017.2 1017.0 0.0
26/09:05pm - - - - - WSW 28 50 15 27 1017.3 1017.1 0.0
26/09:00pm - - - - - WSW 24 39 13 21 1017.3 1017.1 0.0
26/08:30pm - - - - - WNW 19 26 10 14 1017.1 1016.9 0.0
26/08:00pm - - - - - NW 15 19 8 10 1016.9 1016.7 0.0
26/07:30pm - - - - - NNW 17 20 9 11 1016.7 1016.5 0.0
26/07:00pm - - - - - NNW 13 17 7 9 1016.5 1016.3 0.0
26/06:30pm - - - - - NNW 9 13 5 7 1016.1 1015.9 0.0
26/06:00pm - - - - - NE 6 9 3 5 1015.6 1015.4 0.0
26/05:30pm - - - - - E 7 11 4 6 1015.5 1015.3 0.0
26/05:00pm - - - - - ENE 9 13 5 7 1015.2 1015.0 0.0
26/04:30pm - - - - - NE 9 13 5 7 1015.0 1014.8 0.0
26/04:00pm - - - - - NE 9 13 5 7 1014.9 1014.7 0.0
26/03:30pm - - - - - NNE 9 17 5 9 1014.7 1014.5 0.0
26/03:00pm - - - - - NE 11 20 6 11 1014.3 1014.1 0.0
26/02:30pm - - - - - ENE 17 22 9 12 1014.1 1013.9 0.0
26/02:00pm - - - - - ENE 15 19 8 10 1014.6 1014.4 0.0
26/01:30pm - - - - - E 15 19 8 10 1015.0 1014.8 0.0
26/01:00pm - - - - - ESE 19 22 10 12 1015.3 1015.1 0.0
26/12:30pm - - - - - SE 19 24 10 13 1015.5 1015.3 0.0
26/12:00pm - - - - - SE 19 22 10 12 1015.9 1015.7 0.0
26/11:30am - - - - - SE 17 22 9 12 1016.5 1016.3 0.0
26/11:00am - - - - - SE 15 19 8 10 1016.8 1016.6 0.0
26/10:30am - - - - - SSE 17 22 9 12 1016.9 1016.7 0.0
26/10:00am - - - - - S 19 24 10 13 1017.1 1016.9 0.0
26/09:30am - - - - - S 17 22 9 12 1017.4 1017.2 0.0
26/09:00am - - - - - S 20 24 11 13 1017.5 1017.3 0.0
26/08:30am - - - - - S 22 30 12 16 1017.6 1017.4 0.0
26/08:00am - - - - - S 20 26 11 14 1017.5 1017.3 0.0
26/07:30am - - - - - S 20 30 11 16 1017.4 1017.2 0.0
26/07:00am - - - - - S 24 28 13 15 1017.0 1016.8 0.0
26/06:30am - - - - - S 26 28 14 15 1016.6 1016.4 0.0
26/06:00am - - - - - S 26 30 14 16 1016.4 1016.2 0.0
26/05:30am - - - - - S 24 30 13 16 1015.8 1015.6 0.0
26/05:00am - - - - - SSW 22 28 12 15 1015.5 1015.3 0.0
26/04:30am - - - - - SSW 22 30 12 16 1015.4 1015.2 0.0
26/04:00am - - - - - SW 26 35 14 19 1015.3 1015.1 0.0
26/03:30am - - - - - SW 28 33 15 18 1015.0 1014.8 0.0
26/03:00am - - - - - SW 28 33 15 18 1015.1 1014.9 0.0
26/02:30am - - - - - WSW 30 35 16 19 1015.2 1015.0 0.0
26/02:00am - - - - - SW 22 35 12 19 1015.3 1015.1 0.0
26/01:30am - - - - - SW 26 37 14 20 1015.1 1014.9 0.0
26/01:00am - - - - - SW 32 41 17 22 1015.2 1015.0 0.0
26/12:30am - - - - - SSW 35 48 19 26 1015.3 1015.1 0.0
26/12:00am - - - - - SW 35 50 19 27 1015.1 1014.9 0.0
 
Date/Time
EST
Temp
°C
App
Temp
°C
Dew
Point
°C
Rel
Hum
%
Delta-T
°C
Wind Press
QNH
hPa
Press
MSL
hPa
Rain since
9am
mm
Dir  Spd
km/h
Gust
km/h
Spd
kts
Gust
kts
25/11:30pm - - - - - SSW 41 54 22 29 1015.0 1014.8 0.0
25/11:00pm - - - - - SSW 44 59 24 32 1015.1 1014.9 0.0
25/10:30pm - - - - - SSW 39 48 21 26 1015.1 1014.9 0.0
25/10:00pm - - - - - SSW 32 44 17 24 1015.4 1015.2 0.0
25/09:30pm - - - - - SSW 37 46 20 25 1015.5 1015.3 0.0
25/09:00pm - - - - - SSW 33 43 18 23 1015.6 1015.4 0.0
25/08:30pm - - - - - SSW 32 43 17 23 1015.4 1015.2 0.0
25/08:00pm - - - - - SSW 28 37 15 20 1015.1 1014.9 0.0
25/07:30pm - - - - - SW 24 35 13 19 1014.7 1014.5 0.0
25/07:00pm - - - - - SSW 24 30 13 16 1013.9 1013.7 0.0

Other Formats:

Comma delimited format used in spreadsheet applications
http://www.bom.gov.au/fwo/IDQ60801/IDQ60801.94584.axf

JavaScript Object Notation format (JSON) in row-major order
http://www.bom.gov.au/fwo/IDQ60801/IDQ60801.94584.json